createdAt,value
2022-12-03T00:00:47.229Z,0.67
2022-12-03T00:01:46.677Z,0.78
2022-12-03T00:02:46.738Z,0.70
2022-12-03T00:03:46.862Z,0.62
2022-12-03T00:04:46.648Z,0.74
2022-12-03T00:05:49.073Z,0.84
2022-12-03T00:06:48.325Z,0.82
2022-12-03T00:07:46.730Z,0.75
2022-12-03T00:08:46.637Z,0.74
2022-12-03T00:09:46.586Z,0.77
2022-12-03T00:10:47.313Z,0.81
2022-12-03T00:11:46.602Z,0.78
2022-12-03T00:12:47.249Z,0.72
2022-12-03T00:13:46.658Z,0.75
2022-12-03T00:14:46.542Z,0.77
2022-12-03T00:15:46.589Z,0.75
2022-12-03T00:16:46.513Z,0.86
2022-12-03T00:17:46.475Z,0.88
2022-12-03T00:18:47.312Z,0.88
2022-12-03T00:19:46.515Z,0.81
2022-12-03T00:20:46.454Z,0.84
2022-12-03T00:21:47.307Z,0.80
2022-12-03T00:22:46.466Z,0.78
2022-12-03T00:23:46.512Z,0.80
2022-12-03T00:24:46.440Z,0.82
2022-12-03T00:25:46.419Z,0.82
2022-12-03T00:26:47.326Z,0.80
2022-12-03T00:27:46.391Z,0.80
2022-12-03T00:28:46.375Z,0.77
2022-12-03T00:29:47.279Z,0.81
2022-12-03T00:30:47.455Z,0.78
2022-12-03T00:31:46.335Z,0.78
2022-12-03T00:32:46.348Z,0.77
2022-12-03T00:33:46.345Z,0.74
2022-12-03T00:34:46.331Z,0.82
2022-12-03T00:35:46.495Z,0.82
2022-12-03T00:36:47.282Z,0.81
2022-12-03T00:37:46.287Z,0.78
2022-12-03T00:38:46.795Z,0.75
2022-12-03T00:39:46.252Z,0.77
2022-12-03T00:40:46.253Z,0.81
2022-12-03T00:41:46.223Z,0.78
2022-12-03T00:42:46.216Z,0.74
2022-12-03T00:43:46.222Z,0.78
2022-12-03T00:44:46.208Z,0.80
2022-12-03T00:45:46.188Z,0.75
2022-12-03T00:46:46.270Z,0.80
2022-12-03T00:47:46.269Z,0.82
2022-12-03T00:48:46.149Z,0.75
2022-12-03T00:49:46.165Z,0.78
2022-12-03T00:50:47.706Z,0.80
2022-12-03T00:51:46.141Z,0.75
2022-12-03T00:52:46.121Z,0.81
2022-12-03T00:53:46.116Z,0.75
2022-12-03T00:54:46.097Z,0.72
2022-12-03T00:55:46.085Z,0.84
2022-12-03T00:56:46.787Z,0.78
2022-12-03T00:57:46.066Z,0.80
2022-12-03T00:58:46.045Z,0.81
2022-12-03T00:59:46.023Z,0.81
2022-12-03T01:00:46.036Z,0.77
2022-12-03T01:01:46.304Z,0.72
2022-12-03T01:02:46.770Z,0.77
2022-12-03T01:03:46.015Z,0.74
2022-12-03T01:04:46.028Z,0.70
2022-12-03T01:05:46.034Z,0.68
2022-12-03T01:06:45.950Z,0.57
2022-12-03T01:07:46.022Z,0.53
2022-12-03T01:08:46.065Z,0.59
2022-12-03T01:09:45.929Z,0.62
2022-12-03T01:10:45.929Z,0.70
2022-12-03T01:11:45.926Z,0.57
2022-12-03T01:12:45.922Z,0.51
2022-12-03T01:13:45.883Z,0.59
2022-12-03T01:14:45.874Z,0.52
2022-12-03T01:15:45.961Z,0.59
2022-12-03T01:16:45.846Z,0.56
2022-12-03T01:17:45.854Z,0.56
2022-12-03T01:18:45.842Z,0.62
2022-12-03T01:19:48.459Z,0.52
2022-12-03T01:20:46.959Z,0.60
2022-12-03T01:21:45.833Z,0.53
2022-12-03T01:22:45.800Z,0.53
2022-12-03T01:23:45.785Z,0.45
2022-12-03T01:24:45.768Z,0.52
2022-12-03T01:25:45.890Z,0.45
2022-12-03T01:26:45.745Z,0.59
2022-12-03T01:27:45.750Z,0.60
2022-12-03T01:28:46.675Z,0.57
2022-12-03T01:29:45.888Z,0.45
2022-12-03T01:30:45.770Z,0.49
2022-12-03T01:31:46.264Z,0.51
2022-12-03T01:32:45.754Z,0.52
2022-12-03T01:33:45.676Z,0.59
2022-12-03T01:34:46.139Z,0.57
2022-12-03T01:35:45.664Z,0.41
2022-12-03T01:36:45.694Z,0.38
2022-12-03T01:37:45.623Z,0.41
2022-12-03T01:38:45.684Z,0.41
2022-12-03T01:39:45.610Z,0.40
2022-12-03T01:40:46.160Z,0.41
2022-12-03T01:41:46.175Z,0.37
2022-12-03T01:42:46.195Z,0.37
2022-12-03T01:43:45.572Z,0.41
2022-12-03T01:44:45.619Z,0.35
2022-12-03T01:45:45.539Z,0.43
2022-12-03T01:46:46.243Z,0.44
2022-12-03T01:47:45.536Z,0.44
2022-12-03T01:48:45.696Z,0.37
2022-12-03T01:49:45.485Z,0.38
2022-12-03T01:50:45.535Z,0.35
2022-12-03T01:51:45.480Z,0.41
2022-12-03T01:52:45.556Z,0.34
2022-12-03T01:53:45.461Z,0.41
2022-12-03T01:54:46.315Z,0.38
2022-12-03T01:55:48.620Z,0.41
2022-12-03T01:56:46.756Z,0.34
2022-12-03T01:57:45.408Z,0.40
2022-12-03T01:58:45.646Z,0.41
2022-12-03T01:59:45.388Z,0.35
2022-12-03T02:00:45.590Z,0.40
2022-12-03T02:01:45.442Z,0.37
2022-12-03T02:02:45.789Z,0.34
2022-12-03T02:03:46.392Z,0.33
2022-12-03T02:04:45.600Z,0.33
2022-12-03T02:05:46.166Z,0.37
2022-12-03T02:06:45.537Z,0.37
2022-12-03T02:07:45.397Z,0.40
2022-12-03T02:08:46.192Z,0.43
2022-12-03T02:09:45.317Z,0.38
2022-12-03T02:10:45.376Z,0.34
2022-12-03T02:11:45.296Z,0.43
2022-12-03T02:12:45.657Z,0.37
2022-12-03T02:13:45.283Z,0.38
2022-12-03T02:14:45.781Z,0.34
2022-12-03T02:15:45.296Z,0.41
2022-12-03T02:16:46.168Z,0.44
2022-12-03T02:17:45.229Z,0.35
2022-12-03T02:18:46.167Z,0.44
2022-12-03T02:19:45.182Z,0.37
2022-12-03T02:20:45.171Z,0.35
2022-12-03T02:21:45.145Z,0.37
2022-12-03T02:22:45.752Z,0.45
2022-12-03T02:23:45.177Z,0.43
2022-12-03T02:24:45.129Z,0.37
2022-12-03T02:25:46.657Z,0.33
2022-12-03T02:26:46.250Z,0.35
2022-12-03T02:27:45.084Z,0.30
2022-12-03T02:28:45.075Z,0.33
2022-12-03T02:29:45.082Z,0.34
2022-12-03T02:30:45.659Z,0.33
2022-12-03T02:31:45.081Z,0.41
2022-12-03T02:32:45.082Z,0.35
2022-12-03T02:33:45.110Z,0.34
2022-12-03T02:34:45.061Z,0.28
2022-12-03T02:35:45.082Z,0.20
2022-12-03T02:36:45.150Z,0.28
2022-12-03T02:37:45.714Z,0.26
2022-12-03T02:38:44.973Z,0.26
2022-12-03T02:39:45.653Z,0.30
2022-12-03T02:40:45.054Z,0.34
2022-12-03T02:41:45.042Z,0.33
2022-12-03T02:42:44.955Z,0.31
2022-12-03T02:43:45.922Z,0.33
2022-12-03T02:44:44.915Z,0.26
2022-12-03T02:45:45.042Z,0.37
2022-12-03T02:46:44.957Z,0.34
2022-12-03T02:47:45.068Z,0.31
2022-12-03T02:48:44.855Z,0.34
2022-12-03T02:49:44.898Z,0.19
2022-12-03T02:50:44.839Z,0.26
2022-12-03T02:51:45.746Z,0.26
2022-12-03T02:52:44.899Z,0.30
2022-12-03T02:53:44.847Z,0.30
2022-12-03T02:54:44.811Z,0.30
2022-12-03T02:55:44.947Z,0.30
2022-12-03T02:56:46.252Z,0.28
2022-12-03T02:57:45.856Z,0.28
2022-12-03T02:58:44.907Z,0.28
2022-12-03T02:59:44.734Z,0.28
2022-12-03T03:00:44.813Z,0.23
2022-12-03T03:01:44.855Z,0.31
2022-12-03T03:02:44.806Z,0.31
2022-12-03T03:03:44.744Z,0.33
2022-12-03T03:04:44.847Z,0.30
2022-12-03T03:05:45.687Z,0.26
2022-12-03T03:06:44.663Z,0.25
2022-12-03T03:07:45.718Z,0.37
2022-12-03T03:08:44.669Z,0.34
2022-12-03T03:09:46.120Z,0.34
2022-12-03T03:10:44.762Z,0.33
2022-12-03T03:11:44.635Z,0.34
2022-12-03T03:12:45.172Z,0.37
2022-12-03T03:13:45.144Z,0.35
2022-12-03T03:14:44.607Z,0.26
2022-12-03T03:15:44.612Z,0.34
2022-12-03T03:16:44.773Z,0.31
2022-12-03T03:17:44.687Z,0.30
2022-12-03T03:18:44.521Z,0.25
2022-12-03T03:19:45.311Z,0.31
2022-12-03T03:20:45.154Z,0.38
2022-12-03T03:21:45.136Z,0.37
2022-12-03T03:22:44.488Z,0.40
2022-12-03T03:23:44.527Z,0.40
2022-12-03T03:24:44.600Z,0.35
2022-12-03T03:25:44.476Z,0.43
2022-12-03T03:26:45.469Z,0.34
2022-12-03T03:27:45.468Z,0.40
2022-12-03T03:28:44.545Z,0.35
2022-12-03T03:29:45.144Z,0.35
2022-12-03T03:30:45.141Z,0.38
2022-12-03T03:31:45.440Z,0.31
2022-12-03T03:32:44.468Z,0.33
2022-12-03T03:33:44.417Z,0.33
2022-12-03T03:34:44.395Z,0.40
2022-12-03T03:35:44.425Z,0.44
2022-12-03T03:36:44.493Z,0.38
2022-12-03T03:37:45.141Z,0.37
2022-12-03T03:38:44.352Z,0.34
2022-12-03T03:39:44.375Z,0.43
2022-12-03T03:40:44.389Z,0.40
2022-12-03T03:41:44.416Z,0.45
2022-12-03T03:42:44.292Z,0.34
2022-12-03T03:43:44.432Z,0.34
2022-12-03T03:44:44.290Z,0.34
2022-12-03T03:45:44.310Z,0.33
2022-12-03T03:46:44.398Z,0.40
2022-12-03T03:47:44.210Z,0.34
2022-12-03T03:48:44.214Z,0.35
2022-12-03T03:49:44.334Z,0.33
2022-12-03T03:50:44.200Z,0.34
2022-12-03T03:51:44.829Z,0.35
2022-12-03T03:52:44.249Z,0.33
2022-12-03T03:53:44.295Z,0.41
2022-12-03T03:54:44.162Z,0.37
2022-12-03T03:55:45.121Z,0.34
2022-12-03T03:56:44.141Z,0.37
2022-12-03T03:57:44.162Z,0.34
2022-12-03T03:58:44.729Z,0.34
2022-12-03T03:59:44.246Z,0.35
2022-12-03T04:00:44.145Z,0.35
2022-12-03T04:01:44.118Z,0.38
2022-12-03T04:02:44.078Z,0.31
2022-12-03T04:03:44.208Z,0.35
2022-12-03T04:04:44.017Z,0.35
2022-12-03T04:05:45.033Z,0.31
2022-12-03T04:06:44.062Z,0.34
2022-12-03T04:07:44.066Z,0.34
2022-12-03T04:08:44.003Z,0.31
2022-12-03T04:09:44.002Z,0.41
2022-12-03T04:10:43.993Z,0.44
2022-12-03T04:11:44.111Z,0.45
2022-12-03T04:12:44.008Z,0.38
2022-12-03T04:13:43.976Z,0.38
2022-12-03T04:14:43.998Z,0.35
2022-12-03T04:15:43.967Z,0.34
2022-12-03T04:16:43.976Z,0.28
2022-12-03T04:17:44.030Z,0.25
2022-12-03T04:18:43.954Z,0.31
2022-12-03T04:19:43.905Z,0.37
2022-12-03T04:20:43.855Z,0.38
2022-12-03T04:21:43.849Z,0.25
2022-12-03T04:22:43.843Z,0.25
2022-12-03T04:23:43.862Z,0.28
2022-12-03T04:24:43.866Z,0.28
2022-12-03T04:25:43.830Z,0.28
2022-12-03T04:26:43.906Z,0.33
2022-12-03T04:27:43.767Z,0.31
2022-12-03T04:28:43.799Z,0.31
2022-12-03T04:29:43.766Z,0.33
2022-12-03T04:30:43.826Z,0.25
2022-12-03T04:31:43.771Z,0.30
2022-12-03T04:32:43.740Z,0.31
2022-12-03T04:33:43.834Z,0.26
2022-12-03T04:34:43.728Z,0.22
2022-12-03T04:35:45.919Z,0.20
2022-12-03T04:36:43.686Z,0.34
2022-12-03T04:37:44.255Z,0.28
2022-12-03T04:38:43.695Z,0.26
2022-12-03T04:39:43.647Z,0.35
2022-12-03T04:40:43.656Z,0.30
2022-12-03T04:41:43.656Z,0.33
2022-12-03T04:42:43.627Z,0.30
2022-12-03T04:43:43.627Z,0.35
2022-12-03T04:44:43.626Z,0.26
2022-12-03T04:45:43.668Z,0.33
2022-12-03T04:46:43.578Z,0.33
2022-12-03T04:47:43.566Z,0.28
2022-12-03T04:48:43.586Z,0.23
2022-12-03T04:49:43.587Z,0.38
2022-12-03T04:50:43.520Z,0.30
2022-12-03T04:51:43.541Z,0.37
2022-12-03T04:52:43.512Z,0.33
2022-12-03T04:53:46.304Z,0.41
2022-12-03T04:54:44.489Z,0.43
2022-12-03T04:55:43.508Z,0.34
2022-12-03T04:56:43.456Z,0.40
2022-12-03T04:57:43.490Z,0.38
2022-12-03T04:58:43.488Z,0.43
2022-12-03T04:59:43.464Z,0.40
2022-12-03T05:00:43.428Z,0.43
2022-12-03T05:01:43.528Z,0.37
2022-12-03T05:02:43.468Z,0.45
2022-12-03T05:03:43.419Z,0.45
2022-12-03T05:04:43.375Z,0.38
2022-12-03T05:05:43.401Z,0.38
2022-12-03T05:06:43.361Z,0.34
2022-12-03T05:07:43.453Z,0.33
2022-12-03T05:08:43.337Z,0.41
2022-12-03T05:09:43.336Z,0.37
2022-12-03T05:10:44.168Z,0.31
2022-12-03T05:11:43.313Z,0.38
2022-12-03T05:12:43.299Z,0.31
2022-12-03T05:13:43.423Z,0.35
2022-12-03T05:14:43.272Z,0.40
2022-12-03T05:15:43.256Z,0.37
2022-12-03T05:16:43.309Z,0.38
2022-12-03T05:17:43.245Z,0.35
2022-12-03T05:18:43.248Z,0.38
2022-12-03T05:19:43.223Z,0.40
2022-12-03T05:20:45.800Z,0.45
2022-12-03T05:21:43.221Z,0.31
2022-12-03T05:22:43.197Z,0.31
2022-12-03T05:23:43.749Z,0.41
2022-12-03T05:24:43.196Z,0.34
2022-12-03T05:25:43.180Z,0.31
2022-12-03T05:26:43.205Z,0.43
2022-12-03T05:27:43.146Z,0.37
2022-12-03T05:28:44.129Z,0.43
2022-12-03T05:29:43.123Z,0.37
2022-12-03T05:30:43.270Z,0.34
2022-12-03T05:31:43.118Z,0.28
2022-12-03T05:32:43.074Z,0.38
2022-12-03T05:33:44.558Z,0.40
2022-12-03T05:34:44.066Z,0.35
2022-12-03T05:35:43.060Z,0.38
2022-12-03T05:36:43.046Z,0.35
2022-12-03T05:37:43.031Z,0.33
2022-12-03T05:38:43.057Z,0.35
2022-12-03T05:39:43.250Z,0.34
2022-12-03T05:40:43.003Z,0.41
2022-12-03T05:41:43.077Z,0.43
2022-12-03T05:42:42.989Z,0.38
2022-12-03T05:43:42.983Z,0.34
2022-12-03T05:44:42.968Z,0.40
2022-12-03T05:45:43.002Z,0.34
2022-12-03T05:46:43.017Z,0.30
2022-12-03T05:47:42.929Z,0.37
2022-12-03T05:48:42.918Z,0.31
2022-12-03T05:49:42.906Z,0.34
2022-12-03T05:50:42.902Z,0.28
2022-12-03T05:51:42.878Z,0.26
2022-12-03T05:52:42.890Z,0.26
2022-12-03T05:53:42.875Z,0.25
2022-12-03T05:54:42.848Z,0.25
2022-12-03T05:55:42.842Z,0.34
2022-12-03T05:56:42.858Z,0.28
2022-12-03T05:57:42.835Z,0.26
2022-12-03T05:58:42.823Z,0.28
2022-12-03T05:59:42.799Z,0.31
2022-12-03T06:00:43.184Z,0.23
2022-12-03T06:01:43.726Z,0.35
2022-12-03T06:02:42.901Z,0.35
2022-12-03T06:03:42.883Z,0.34
2022-12-03T06:04:42.750Z,0.38
2022-12-03T06:05:42.743Z,0.35
2022-12-03T06:06:42.761Z,0.34
2022-12-03T06:07:42.764Z,0.33
2022-12-03T06:08:42.723Z,0.35
2022-12-03T06:09:42.707Z,0.40
2022-12-03T06:10:42.691Z,0.40
2022-12-03T06:11:42.668Z,0.34
2022-12-03T06:12:42.660Z,0.38
2022-12-03T06:13:42.665Z,0.35
2022-12-03T06:14:42.657Z,0.35
2022-12-03T06:15:44.135Z,0.40
2022-12-03T06:16:43.669Z,0.28
2022-12-03T06:17:42.603Z,0.34
2022-12-03T06:18:42.600Z,0.37
2022-12-03T06:19:42.596Z,0.37
2022-12-03T06:20:42.632Z,0.34
2022-12-03T06:21:42.592Z,0.35
2022-12-03T06:22:42.559Z,0.34
2022-12-03T06:23:42.537Z,0.35
2022-12-03T06:24:42.529Z,0.37
2022-12-03T06:25:42.533Z,0.28
2022-12-03T06:26:42.556Z,0.37
2022-12-03T06:27:42.523Z,0.35
2022-12-03T06:28:42.516Z,0.37
2022-12-03T06:29:42.496Z,0.35
2022-12-03T06:30:42.492Z,0.33
2022-12-03T06:31:42.513Z,0.33
2022-12-03T06:32:42.438Z,0.34
2022-12-03T06:33:42.449Z,0.23
2022-12-03T06:34:42.425Z,0.31
2022-12-03T06:35:42.406Z,0.28
2022-12-03T06:36:42.400Z,0.33
2022-12-03T06:37:42.403Z,0.23
2022-12-03T06:38:42.369Z,0.25
2022-12-03T06:39:42.413Z,0.33
2022-12-03T06:40:42.342Z,0.25
2022-12-03T06:41:42.364Z,0.35
2022-12-03T06:42:42.329Z,0.37
2022-12-03T06:43:42.340Z,0.35
2022-12-03T06:44:42.369Z,0.34
2022-12-03T06:45:47.495Z,0.25
2022-12-03T06:46:44.384Z,0.23
2022-12-03T06:47:42.291Z,0.26
2022-12-03T06:48:42.275Z,0.37
2022-12-03T06:49:42.272Z,0.33
2022-12-03T06:50:42.273Z,0.38
2022-12-03T06:51:42.243Z,0.35
2022-12-03T06:52:42.226Z,0.33
2022-12-03T06:53:42.218Z,0.30
2022-12-03T06:54:42.221Z,0.31
2022-12-03T06:55:42.201Z,0.31
2022-12-03T06:56:45.331Z,0.31
2022-12-03T06:57:43.177Z,0.25
2022-12-03T06:58:42.165Z,0.38
2022-12-03T06:59:42.154Z,0.37
2022-12-03T07:00:42.178Z,0.31
2022-12-03T07:01:42.222Z,0.44
2022-12-03T07:02:42.151Z,0.37
2022-12-03T07:03:42.159Z,0.31
2022-12-03T07:04:46.263Z,0.31
2022-12-03T07:05:43.091Z,0.34
2022-12-03T07:06:42.094Z,0.34
2022-12-03T07:07:42.140Z,0.30
2022-12-03T07:08:42.082Z,0.28
2022-12-03T07:09:42.603Z,0.31
2022-12-03T07:10:42.047Z,0.33
2022-12-03T07:11:42.025Z,0.31
2022-12-03T07:12:42.038Z,0.34
2022-12-03T07:13:42.025Z,0.33
2022-12-03T07:14:41.995Z,0.40
2022-12-03T07:15:42.065Z,0.38
2022-12-03T07:16:42.087Z,0.34
2022-12-03T07:17:41.958Z,0.34
2022-12-03T07:18:41.979Z,0.38
2022-12-03T07:19:41.931Z,0.35
2022-12-03T07:20:41.994Z,0.43
2022-12-03T07:21:41.916Z,0.38
2022-12-03T07:22:41.951Z,0.41
2022-12-03T07:23:41.923Z,0.37
2022-12-03T07:24:41.888Z,0.40
2022-12-03T07:25:41.997Z,0.38
2022-12-03T07:26:41.905Z,0.41
2022-12-03T07:27:41.988Z,0.52
2022-12-03T07:28:41.853Z,0.44
2022-12-03T07:29:41.856Z,0.43
2022-12-03T07:30:41.839Z,0.41
2022-12-03T07:31:41.848Z,0.49
2022-12-03T07:32:41.848Z,0.43
2022-12-03T07:33:41.784Z,0.49
2022-12-03T07:34:41.852Z,0.57
2022-12-03T07:35:41.760Z,0.56
2022-12-03T07:36:41.774Z,0.51
2022-12-03T07:37:41.753Z,0.59
2022-12-03T07:38:41.743Z,0.51
2022-12-03T07:39:41.742Z,0.37
2022-12-03T07:40:41.775Z,0.48
2022-12-03T07:41:41.704Z,0.44
2022-12-03T07:42:41.712Z,0.40
2022-12-03T07:43:41.711Z,0.37
2022-12-03T07:44:41.655Z,0.40
2022-12-03T07:45:42.748Z,0.35
2022-12-03T07:46:41.779Z,0.31
2022-12-03T07:47:41.866Z,0.48
2022-12-03T07:48:42.180Z,0.44
2022-12-03T07:49:41.660Z,0.51
2022-12-03T07:50:41.606Z,0.37
2022-12-03T07:51:41.613Z,0.51
2022-12-03T07:52:41.617Z,0.52
2022-12-03T07:53:41.573Z,0.49
2022-12-03T07:54:41.569Z,0.57
2022-12-03T07:55:41.561Z,0.48
2022-12-03T07:56:41.572Z,0.43
2022-12-03T07:57:42.269Z,0.37
2022-12-03T07:58:42.174Z,0.40
2022-12-03T07:59:41.526Z,0.43
2022-12-03T08:00:42.581Z,0.37
2022-12-03T08:01:41.507Z,0.40
2022-12-03T08:02:41.557Z,0.34
2022-12-03T08:03:41.453Z,0.37
2022-12-03T08:04:41.453Z,0.37
2022-12-03T08:05:41.478Z,0.44
2022-12-03T08:06:41.433Z,0.31
2022-12-03T08:07:41.493Z,0.43
2022-12-03T08:08:41.446Z,0.35
2022-12-03T08:09:41.401Z,0.25
2022-12-03T08:10:41.413Z,0.33
2022-12-03T08:11:41.408Z,0.30
2022-12-03T08:12:41.364Z,0.33
2022-12-03T08:13:41.338Z,0.23
2022-12-03T08:14:41.327Z,0.30
2022-12-03T08:15:41.363Z,0.25
2022-12-03T08:16:41.510Z,0.19
2022-12-03T08:17:41.303Z,0.15
2022-12-03T08:18:41.311Z,0.23
2022-12-03T08:19:41.274Z,0.30
2022-12-03T08:20:41.278Z,0.30
2022-12-03T08:21:41.282Z,0.37
2022-12-03T08:22:41.275Z,0.45
2022-12-03T08:23:41.267Z,0.56
2022-12-03T08:24:41.247Z,0.48
2022-12-03T08:25:41.208Z,0.48
2022-12-03T08:26:41.218Z,0.44
2022-12-03T08:27:41.324Z,0.35
2022-12-03T08:28:41.207Z,0.41
2022-12-03T08:29:41.192Z,0.34
2022-12-03T08:30:41.267Z,0.26
2022-12-03T08:31:41.193Z,0.43
2022-12-03T08:32:41.152Z,0.44
2022-12-03T08:33:42.693Z,0.38
2022-12-03T08:34:41.282Z,0.31
2022-12-03T08:35:41.111Z,0.33
2022-12-03T08:36:41.099Z,0.37
2022-12-03T08:37:41.090Z,0.43
2022-12-03T08:38:41.099Z,0.43
2022-12-03T08:39:41.053Z,0.37
2022-12-03T08:40:41.109Z,0.41
2022-12-03T08:41:41.099Z,0.38
2022-12-03T08:42:41.075Z,0.40
2022-12-03T08:43:41.029Z,0.44
2022-12-03T08:44:41.028Z,0.48
2022-12-03T08:45:41.150Z,0.49
2022-12-03T08:46:40.981Z,0.45
2022-12-03T08:47:40.970Z,0.45
2022-12-03T08:48:46.972Z,0.43
2022-12-03T08:49:42.958Z,0.44
2022-12-03T08:50:40.943Z,0.53
2022-12-03T08:51:40.939Z,0.57
2022-12-03T08:52:40.935Z,0.44
2022-12-03T08:53:40.934Z,0.34
2022-12-03T08:54:40.939Z,0.45
2022-12-03T08:55:40.948Z,0.44
2022-12-03T08:56:40.874Z,0.44
2022-12-03T08:57:41.116Z,0.41
2022-12-03T08:58:40.895Z,0.43
2022-12-03T08:59:45.317Z,0.43
2022-12-03T09:00:41.865Z,0.45
2022-12-03T09:01:40.887Z,0.41
2022-12-03T09:02:40.823Z,0.45
2022-12-03T09:03:40.867Z,0.45
2022-12-03T09:04:40.921Z,0.35
2022-12-03T09:05:40.763Z,0.41
2022-12-03T09:06:40.776Z,0.37
2022-12-03T09:07:40.830Z,0.45
2022-12-03T09:08:40.758Z,0.40
2022-12-03T09:09:40.864Z,0.40
2022-12-03T09:10:40.739Z,0.38
2022-12-03T09:11:40.739Z,0.34
2022-12-03T09:12:40.702Z,0.48
2022-12-03T09:13:40.698Z,0.53
2022-12-03T09:14:40.687Z,0.45
2022-12-03T09:15:41.009Z,0.64
2022-12-03T09:16:40.771Z,0.44
2022-12-03T09:17:43.188Z,0.59
2022-12-03T09:18:40.783Z,0.52
2022-12-03T09:19:45.681Z,0.44
2022-12-03T09:20:42.699Z,0.48
2022-12-03T09:21:40.602Z,0.37
2022-12-03T09:22:40.591Z,0.34
2022-12-03T09:23:40.751Z,0.38
2022-12-03T09:24:40.612Z,0.52
2022-12-03T09:25:40.586Z,0.48
2022-12-03T09:26:40.612Z,0.59
2022-12-03T09:27:40.546Z,0.56
2022-12-03T09:28:42.352Z,0.51
2022-12-03T09:29:42.264Z,0.41
2022-12-03T09:30:40.520Z,0.51
2022-12-03T09:31:40.596Z,0.59
2022-12-03T09:32:40.508Z,0.49
2022-12-03T09:33:40.601Z,0.64
2022-12-03T09:34:41.552Z,0.52
2022-12-03T09:35:40.457Z,0.52
2022-12-03T09:36:41.011Z,0.67
2022-12-03T09:37:40.433Z,0.59
2022-12-03T09:38:45.987Z,0.53
2022-12-03T09:39:42.410Z,0.53
2022-12-03T09:40:40.424Z,0.72
2022-12-03T09:41:40.405Z,0.71
2022-12-03T09:42:40.401Z,0.60
2022-12-03T09:44:03.405Z,0.63
2022-12-03T09:44:42.344Z,0.63
2022-12-03T09:45:40.400Z,0.70
2022-12-03T09:46:40.401Z,0.82
2022-12-03T09:47:40.333Z,0.63
2022-12-03T09:48:40.309Z,0.71
2022-12-03T09:49:40.564Z,0.80
2022-12-03T09:50:40.292Z,0.74
2022-12-03T09:51:40.305Z,0.80
2022-12-03T09:52:40.268Z,0.86
2022-12-03T09:53:41.492Z,0.89
2022-12-03T09:54:46.858Z,0.74
2022-12-03T09:55:41.295Z,0.88
2022-12-03T09:56:40.238Z,0.81
2022-12-03T09:57:40.265Z,0.88
2022-12-03T09:58:41.170Z,0.92
2022-12-03T09:59:41.158Z,0.90
2022-12-03T10:00:40.318Z,0.80
2022-12-03T10:01:41.795Z,0.68
2022-12-03T10:02:40.205Z,0.75
2022-12-03T10:03:40.161Z,0.80
2022-12-03T10:04:40.216Z,0.89
2022-12-03T10:05:45.096Z,0.90
2022-12-03T10:06:45.786Z,0.96
2022-12-03T10:07:40.178Z,0.95
2022-12-03T10:08:40.674Z,0.88
2022-12-03T10:09:40.143Z,0.86
2022-12-03T10:10:40.069Z,0.84
2022-12-03T10:11:40.086Z,0.88
2022-12-03T10:12:40.676Z,0.78
2022-12-03T10:13:40.065Z,0.78
2022-12-03T10:14:40.089Z,0.70
2022-12-03T10:15:40.058Z,0.67
2022-12-03T10:16:40.247Z,0.75
2022-12-03T10:17:40.001Z,0.77
2022-12-03T10:18:41.821Z,0.74
2022-12-03T10:19:41.003Z,0.81
2022-12-03T10:20:39.955Z,0.82
2022-12-03T10:21:41.642Z,0.86
2022-12-03T10:22:39.962Z,0.92
2022-12-03T10:23:39.936Z,0.86
2022-12-03T10:24:39.954Z,0.82
2022-12-03T10:25:40.043Z,0.88
2022-12-03T10:26:39.982Z,0.84
2022-12-03T10:27:40.506Z,0.86
2022-12-03T10:28:40.646Z,0.84
2022-12-03T10:29:39.874Z,0.72
2022-12-03T10:30:39.948Z,0.80
2022-12-03T10:31:39.938Z,0.80
2022-12-03T10:32:39.866Z,0.81
2022-12-03T10:33:39.823Z,0.77
2022-12-03T10:34:39.815Z,0.81
2022-12-03T10:35:39.815Z,0.88
2022-12-03T10:36:39.804Z,0.72
2022-12-03T10:37:39.779Z,0.80
2022-12-03T10:38:39.779Z,0.75
2022-12-03T10:39:39.743Z,0.70
2022-12-03T10:40:39.737Z,0.74
2022-12-03T10:41:39.747Z,0.74
2022-12-03T10:42:39.748Z,0.67
2022-12-03T10:43:39.720Z,0.74
2022-12-03T10:44:39.690Z,0.82
2022-12-03T10:45:39.673Z,0.74
2022-12-03T10:46:39.875Z,0.82
2022-12-03T10:47:39.826Z,0.89
2022-12-03T10:48:39.653Z,0.71
2022-12-03T10:49:39.992Z,0.72
2022-12-03T10:50:39.636Z,0.74
2022-12-03T10:51:39.646Z,0.72
2022-12-03T10:52:39.692Z,0.63
2022-12-03T10:53:39.615Z,0.60
2022-12-03T10:54:39.609Z,0.64
2022-12-03T10:55:39.576Z,0.77
2022-12-03T10:56:39.585Z,0.62
2022-12-03T10:57:45.005Z,0.71
2022-12-03T10:58:41.548Z,0.75
2022-12-03T10:59:39.569Z,0.72
2022-12-03T11:00:39.529Z,0.74
2022-12-03T11:01:39.625Z,0.71
2022-12-03T11:02:39.536Z,0.77
2022-12-03T11:03:40.279Z,0.77
2022-12-03T11:04:39.574Z,0.72
2022-12-03T11:05:40.176Z,0.81
2022-12-03T11:06:40.714Z,0.68
2022-12-03T11:07:39.507Z,0.68
2022-12-03T11:08:39.448Z,0.75
2022-12-03T11:09:39.424Z,0.78
2022-12-03T11:10:39.453Z,0.75
2022-12-03T11:11:39.479Z,0.68
2022-12-03T11:12:39.417Z,0.74
2022-12-03T11:13:39.396Z,0.81
2022-12-03T11:14:39.373Z,0.74
2022-12-03T11:15:39.384Z,0.67
2022-12-03T11:16:39.351Z,0.80
2022-12-03T11:17:39.365Z,0.68
2022-12-03T11:18:39.361Z,0.81
2022-12-03T11:19:39.317Z,0.75
2022-12-03T11:20:39.298Z,0.64
2022-12-03T11:21:39.310Z,0.81
2022-12-03T11:22:39.305Z,0.72
2022-12-03T11:23:39.280Z,0.70
2022-12-03T11:24:39.293Z,0.75
2022-12-03T11:25:39.345Z,0.78
2022-12-03T11:26:39.245Z,0.82
2022-12-03T11:27:39.257Z,0.80
2022-12-03T11:28:39.293Z,0.80
2022-12-03T11:29:39.241Z,0.72
2022-12-03T11:30:40.302Z,0.71
2022-12-03T11:31:39.281Z,0.81
2022-12-03T11:32:39.181Z,0.77
2022-12-03T11:33:39.202Z,0.77
2022-12-03T11:34:39.182Z,0.81
2022-12-03T11:35:39.198Z,0.70
2022-12-03T11:37:00.721Z,0.74
2022-12-03T11:37:41.179Z,0.80
2022-12-03T11:38:39.180Z,0.77
2022-12-03T11:39:39.122Z,0.82
2022-12-03T11:40:39.810Z,0.81
2022-12-03T11:41:40.084Z,0.80
2022-12-03T11:42:39.059Z,0.71
2022-12-03T11:43:39.116Z,0.68
2022-12-03T11:44:39.043Z,0.68
2022-12-03T11:45:39.050Z,0.62
2022-12-03T11:46:39.259Z,0.72
2022-12-03T11:47:39.016Z,0.62
2022-12-03T11:48:39.047Z,0.70
2022-12-03T11:49:39.051Z,0.60
2022-12-03T11:50:40.408Z,0.70
2022-12-03T11:51:39.991Z,0.77
2022-12-03T11:52:39.071Z,0.74
2022-12-03T11:53:38.957Z,0.68
2022-12-03T11:54:39.919Z,0.60
2022-12-03T11:55:38.984Z,0.60
2022-12-03T11:56:38.930Z,0.62
2022-12-03T11:57:39.019Z,0.63
2022-12-03T11:58:39.288Z,0.67
2022-12-03T11:59:38.907Z,0.72
2022-12-03T12:00:38.872Z,0.68
2022-12-03T12:01:39.364Z,0.75
2022-12-03T12:02:38.945Z,0.71
2022-12-03T12:03:38.975Z,0.74
2022-12-03T12:04:39.881Z,0.75
2022-12-03T12:05:38.850Z,0.78
2022-12-03T12:06:38.810Z,0.74
2022-12-03T12:07:38.830Z,0.78
2022-12-03T12:08:38.766Z,0.70
2022-12-03T12:09:38.783Z,0.77
2022-12-03T12:10:38.752Z,0.71
2022-12-03T12:11:38.767Z,0.84
2022-12-03T12:12:38.758Z,0.84
2022-12-03T12:13:38.717Z,0.77
2022-12-03T12:14:38.954Z,0.81
2022-12-03T12:15:38.695Z,0.81
2022-12-03T12:16:38.772Z,0.72
2022-12-03T12:17:38.705Z,0.72
2022-12-03T12:18:38.676Z,0.80
2022-12-03T12:19:38.665Z,0.77
2022-12-03T12:20:38.640Z,0.81
2022-12-03T12:21:38.711Z,0.81
2022-12-03T12:22:38.645Z,0.70
2022-12-03T12:23:38.644Z,0.74
2022-12-03T12:24:38.642Z,0.64
2022-12-03T12:25:38.582Z,0.75
2022-12-03T12:26:38.581Z,0.68
2022-12-03T12:27:38.576Z,0.64
2022-12-03T12:28:38.631Z,0.63
2022-12-03T12:29:38.564Z,0.44
2022-12-03T12:30:38.553Z,0.56
2022-12-03T12:31:38.595Z,0.56
2022-12-03T12:32:38.526Z,0.57
2022-12-03T12:33:38.494Z,0.56
2022-12-03T12:34:38.926Z,0.57
2022-12-03T12:35:39.018Z,0.59
2022-12-03T12:36:38.469Z,0.64
2022-12-03T12:37:38.469Z,0.62
2022-12-03T12:38:39.107Z,0.68
2022-12-03T12:39:38.461Z,0.70
2022-12-03T12:40:38.458Z,0.70
2022-12-03T12:41:38.498Z,0.71
2022-12-03T12:42:38.418Z,0.64
2022-12-03T12:43:38.462Z,0.71
2022-12-03T12:44:38.469Z,0.74
2022-12-03T12:45:38.445Z,0.62
2022-12-03T12:46:47.779Z,0.63
2022-12-03T12:47:41.175Z,0.70
2022-12-03T12:48:40.286Z,0.71
2022-12-03T12:49:38.327Z,0.70
2022-12-03T12:50:38.382Z,0.72
2022-12-03T12:51:40.267Z,0.63
2022-12-03T12:52:38.283Z,0.68
2022-12-03T12:53:38.299Z,0.67
2022-12-03T12:54:38.286Z,0.64
2022-12-03T12:55:38.410Z,0.71
2022-12-03T12:56:38.288Z,0.63
2022-12-03T12:57:38.306Z,0.70
2022-12-03T12:58:38.235Z,0.64
2022-12-03T12:59:38.228Z,0.68
2022-12-03T13:00:38.296Z,0.75
2022-12-03T13:01:38.400Z,0.72
2022-12-03T13:02:38.337Z,0.75
2022-12-03T13:03:38.202Z,0.68
2022-12-03T13:04:38.172Z,0.71
2022-12-03T13:05:38.183Z,0.72
2022-12-03T13:06:38.156Z,0.74
2022-12-03T13:07:39.799Z,0.77
2022-12-03T13:08:38.300Z,0.82
2022-12-03T13:09:38.168Z,0.82
2022-12-03T13:10:38.124Z,0.82
2022-12-03T13:11:38.143Z,0.75
2022-12-03T13:12:38.092Z,0.75
2022-12-03T13:13:43.328Z,0.74
2022-12-03T13:14:40.116Z,0.81
2022-12-03T13:15:38.596Z,0.77
2022-12-03T13:16:38.157Z,0.80
2022-12-03T13:17:38.012Z,0.71
2022-12-03T13:18:38.060Z,0.63